Flight Track Log - Related Links

Times and Time Zones

All times are in EDT time to prevent confusion due to time zone crossing. See the N208LS flight status page for this flight to view local times or setup timezone preferences in your user account.

Time Position Orientation Groundspeed Altitude Reporting Facility
EDT Latitude Longitude Course Direction KTS MPH feet Rate Location/Type
Fri 07:45:40 PM 33.8667 -84.3667 261° West 136 157 2,500  Level Atlanta TRACON
Fri 07:46:46 PM 33.9000 -84.4167 309° West 138 159 3,300 750 Climbing Atlanta TRACON
Fri 07:47:40 PM 33.9167 -84.4500 301° West 141 162 4,000 789 Climbing Atlanta TRACON
Fri 07:48:40 PM 33.9333 -84.4833 301° West 143 165 4,800 750 Climbing Atlanta TRACON
Fri 07:49:40 PM 33.9500 -84.5333 292° West 144 166 5,500 581 Climbing Atlanta TRACON
Fri 07:50:44 PM 33.9706 -84.5747 301° West 152 175 6,000 242 Climbing Atlanta Center
Fri 07:51:44 PM 33.9933 -84.6200 301° West 157 181 6,000  Level Atlanta Center
Fri 07:52:44 PM 34.0139 -84.6728 295° West 167 192 6,000  Level Atlanta Center
Fri 07:53:44 PM 34.0386 -84.7206 302° West 172 198 6,000  Level Atlanta Center
Fri 07:54:44 PM 34.0614 -84.7733 298° West 172 198 6,000  Level Atlanta Center
Fri 07:55:44 PM 34.0839 -84.8214 299° West 172 198 6,000  Level Atlanta Center
Fri 07:56:44 PM 34.1086 -84.8767 298° West 177 204 6,000  Level Atlanta Center
Fri 07:57:44 PM 34.1314 -84.9272 299° West 177 204 6,000  Level Atlanta Center
Fri 07:58:44 PM 34.1539 -84.9775 298° West 177 204 6,000  Level Atlanta Center
Fri 07:59:44 PM 34.1764 -85.0256 300° West 177 204 6,000  Level Atlanta Center
Fri 08:00:44 PM 34.1989 -85.0736 300° West 177 204 6,000  Level Atlanta Center
Fri 08:01:44 PM 34.2236 -85.1242 301° West 172 198 6,000  Level Atlanta Center
Fri 08:02:44 PM 34.2461 -85.1747 298° West 172 198 6,000  Level Atlanta Center
Fri 08:03:44 PM 34.2664 -85.2253 296° West 177 204 6,000  Level Atlanta Center
Fri 08:04:44 PM 34.2911 -85.2758 301° West 177 204 6,000  Level Atlanta Center
Fri 08:05:44 PM 34.3136 -85.3264 298° West 177 204 6,000  Level Atlanta Center
Fri 08:06:44 PM 34.3339 -85.3694 300° West 177 204 6,000  Level Atlanta Center
Fri 08:07:44 PM 34.3542 -85.4228 295° West 177 204 6,000  Level Atlanta Center
Fri 08:08:44 PM 34.3767 -85.4708 300° West 177 204 6,000  Level Atlanta Center
Fri 08:09:44 PM 34.4011 -85.5192 302° West 171 197 6,000  Level Atlanta Center
Fri 08:10:44 PM 34.4256 -85.5700 300° West 171 197 6,000  Level Atlanta Center
Fri 08:11:44 PM 34.4458 -85.6181 297° West 171 197 6,000  Level Atlanta Center
Fri 08:12:44 PM 34.4681 -85.6714 297° West 171 197 6,000  Level Atlanta Center
Fri 08:13:44 PM 34.4925 -85.7172 303° West 171 197 6,000  Level Atlanta Center
Fri 08:14:44 PM 34.5147 -85.7681 298° West 171 197 6,000  Level Atlanta Center
Fri 08:15:44 PM 34.5328 -85.8139 296° West 166 191 6,000  Level Atlanta Center
Fri 08:17:00 PM 34.5630 -85.8745 301° West  Level FlightAware Approximate
Fri 08:24:00 PM 34.7098 -86.2224 287° West  Level FlightAware Approximate
Fri 08:25:00 PM 34.7299 -86.2720 306° West  Level FlightAware Approximate
Fri 08:26:00 PM 34.7570 -86.3173 306° West  Level FlightAware Approximate
Fri 08:27:00 PM 34.7797 -86.3659 296° West  Level FlightAware Approximate
Fri 08:28:00 PM 34.7999 -86.4164 296° West  Level FlightAware Approximate
Fri 08:29:00 PM 34.8172 -86.4684 292° West  Level FlightAware Approximate
Fri 08:30:00 PM 34.8350 -86.5201 301° West  Level FlightAware Approximate
Fri 08:31:00 PM 34.8500 -86.5500 301° West  Level FlightAware Approximate
Fri 08:32:00 PM 34.8614 -86.5575 301° West  Level Estimated

Login

Don't have an account? Register now (free) for customized features, flight alerts, and more!